Logo AVAMET
Benvolgut visitant, si us plau, ingressa Recuperar contrasenya

les Useres

Dades diàries. Acumulats / Últims 30 dies disponibles

Data Temperatura (°C) Humitat rel. (%) Pressió rel. (hPa) Vent (km/h) Precipitació
Mínima Mitjana Màxima Amplitud
tèrmica
Mínima Mitjana Màxima Mínima Mitjana Màxima Predom. Mitjana Ràfega
màxima
Total
(mm)
Índex-n
Mínima Mitjana Màxima Mínima Mitjana Màxima n
0 a 1
P0 max
mm 5'
Dades mensuals acumulades fins l'últim dia disponible
05/2019 8,5 11,7 17,1 16,2 15,9 21,4 28,2 19,7 18 61 95 1.000 1.012 1.023   7,4 77,2 18,0
Dades anuals acumulades fins l'últim dia disponible
2019 1,8 8,7 17,1 12,8 9,1 17,6 28,2 26,4 17 56 97 987 1.017 1.034   7,9 122,3 133,6
Últims 30 dies disponibles
22-05-2019 13,2     17,4     22,8 9,6 41 64 86 1.015 1.016 1.017 SSO 5,4 30,6 0,0
21-05-2019 11,7     16,1     21,7 10,0 38 59 83 1.012 1.014 1.015 SE 5,5 35,4 10,0
20-05-2019 11,4     16,4     20,9 9,5 35 53 69 1.010 1.011 1.013 SE 7,6 38,6 0,0
19-05-2019 9,4     15,1     20,4 11,0 34 54 74 1.007 1.009 1.011 NW 8,7 43,5 0,0
18-05-2019 10,1     13,6     18,2 8,1 49 59 77 1.006 1.007 1.010 SE 6,1 33,8 2,6
17-05-2019 12,2     15,7     19,3 7,1 42 58 92 1.000 1.003 1.008 NW 14,2 64,4 0,0
16-05-2019 11,4     14,8     20,4 9,0 60 78 93 1.005 1.010 1.014 SE 7,2 37,0 0,0
15-05-2019 11,9     16,4     22,8 10,9 51 70 92 1.009 1.011 1.014 E 7,1 38,6 0,0
14-05-2019 11,6     17,1     22,2 10,6 33 58 85 1.013 1.016 1.020 SE 7,6 43,5 0,0
13-05-2019 12,4     17,0     22,9 10,5 32 59 87 1.017 1.019 1.020 SE 6,0 32,2 0,0
12-05-2019 11,4     18,0     24,1 12,7 18 41 76 1.017 1.020 1.023 SE 7,6 35,4 0,0
11-05-2019 16,2     20,3     24,2 8,0 34 62 74 1.013 1.016 1.021 SE 6,4 33,8 0,0
10-05-2019 17,1     22,4     28,2 11,1 41 56 69 1.009 1.010 1.013 SE 6,4 35,4 0,0
09-05-2019 14,1     19,2     24,3 10,2 32 51 67 1.008 1.009 1.011 SE 8,5 30,6 0,0
08-05-2019 13,0     18,5     25,0 12,0 41 68 95 1.006 1.009 1.014 SW 8,0 54,7 0,0
07-05-2019 9,9     15,4     21,2 11,3 59 71 90 1.013 1.015 1.017 SE 4,8 27,4 0,0
06-05-2019 8,5     13,9     18,1 9,6 35 55 75 1.016 1.017 1.018 SE 7,6 35,4 0,0
05-05-2019 9,6     14,1     19,2 9,6 28 48 75 1.010 1.013 1.016 SE 12,9 77,2 0,0
04-05-2019 9,6     13,8     18,9 9,3 43 57 72 1.009 1.011 1.012 SE 9,7 43,5 0,0
03-05-2019 8,9     11,9     15,9 7,0 62 79 91 1.009 1.011 1.014 NNW 3,7 32,2 5,4
02-05-2019 12,0     14,8     19,1 7,1 56 73 84 1.012 1.014 1.015 SE 4,7 33,8 0,0
01-05-2019 10,7     14,2     20,8 10,1 54 79 93 1.012 1.014 1.015 SE 6,1 32,2 0,0
30-04-2019 10,9     14,2     19,7 8,8 58 81 91 1.015 1.015 1.017 SE 6,4 32,2 0,0
29-04-2019 9,2     13,9     19,1 9,9 54 71 88 1.016 1.018 1.019 SE 6,8 33,8 0,0
28-04-2019 11,3     15,9     20,2 8,9 53 63 74 1.018 1.020 1.023 SE 7,2 41,8 0,0
27-04-2019 10,9     16,1     20,8 9,9 35 48 64 1.022 1.023 1.024 SE 7,2 40,2 0,0
26-04-2019 8,8     14,8     20,9 12,1 34 48 62 1.014 1.019 1.024 SE 7,4 37,0 0,0
25-04-2019 12,2     15,4     19,7 7,5 34 59 79 1.005 1.009 1.014 SW 14,8 57,9 0,0
24-04-2019 8,8     12,8     17,0 8,2 45 58 75 1.000 1.005 1.008 SE 12,6 61,2 0,0
23-04-2019 10,2     13,6     19,7 9,5 46 70 85 996 997 1.000 SE 7,4 57,9 0,2
Últims 13 mesos disponibles
04/2019 5,8 9,7 12,3 13,3 12,8 17,8 25,7 19,9 39 62 88 997 1.011 1.023 SE 9,5 62,8 95,8
03/2019 5,1 9,2 14,7 13,7 10,2 18,8 25,7 20,6 35 50 82 1.008 1.021 1.028 SE 7,4 62,8 19,6
02/2019 3,4 7,2 13,7 11,4 9,1 16,6 24,6 21,2 33 57 79 990 1.023 1.032 SE 7,2 122,3 0,0
01/2019 1,8 6,6 10,7 10,2 9,7 14,4 19,8 18,0 22 52 77 998 1.017 1.029 SE 7,8 99,8 0,2
12/2018 5,2 9,1 12,7 12,6 11,7 16,7 22,4 17,2 31 64 85 1.006 1.023 1.029 SE 4,1 80,5 9,2
11/2018 5,9 9,7 14,1 12,7 11,8 16,3 20,8 14,9 45 71 94 1.000 1.013 1.022 NNW 5,7 91,7 133,8
10/2018 6,7 13,4 17,6 16,9 11,2 21,1 26,8 20,1 36 68 94 997 1.013 1.024 SE 6,6 82,1 240,4
09/2018 15,2 18,5 22,3 22,2 21,6 27,0 31,1 15,9 50 73 87 1.010 1.018 1.028 SE 5,5 62,8 85,4
08/2018 18,4 21,5 26,3 26,1 22,7 31,1 35,1 16,7 SE 7,4 78,9 15,0
07/2018 15,1 20,4 23,7 25,2 24,8 30,7 33,2 18,1 SE 7,2 51,5 40,0
06/2018 13,8 17,5 20,9 22,0 20,8 27,1 32,1 18,3 SE 7,0 46,7 24,8
Tots els anys disponibles
Temperatura (°C)
Humitat relativa (%)
Velocitat del vent i ràfega màxima (km/h)
Direcció del vent (°)
Pressió (hPa)
Precipitació (mm)
Nota sobre les dades: s'avisa a l'usuari de la provisionalitat i no oficialitat d'aquestes dades
Logo AVAMET blanc
Web allotjada a Sollutia
Llicència de Creative CommonsLa web d'AVAMET i els seus continguts estan subjectes a una llicència de
Reconeixement - No Comercial - Compartir igual
Properes estacions: Altea - Club Nàutic d'Altea (Soci), Ontinyent - El Pilar (Soci), Ares del Maestrat (Ajuntament Soci), Catadau - L'Altet (Inforatge)     - - - - -      Últimes estacions: Jacarilla - centro (MeteOrihuela), Elx - Maitino/Vallverda/Velarde/Matola/Ferriol (Soci TiempoElche.com), Orihuela - Playa Flamenca (MeteOrihuela), Puçol - Ciutat Jardí (Soci), Alzira - La Casella (Soci) - - -